createdAt,value
2018-05-26T00:00:42.824Z,8.27
2018-05-26T00:03:09.448Z,8.80
2018-05-26T00:05:36.080Z,8.30
2018-05-26T00:08:02.730Z,8.27
2018-05-26T00:10:29.652Z,8.83
2018-05-26T00:12:56.289Z,7.80
2018-05-26T00:15:22.915Z,9.00
2018-05-26T00:17:49.546Z,8.30
2018-05-26T00:20:16.224Z,7.97
2018-05-26T00:22:48.591Z,8.70
2018-05-26T00:25:15.229Z,7.07
2018-05-26T00:27:41.880Z,8.20
2018-05-26T00:30:08.529Z,7.60
2018-05-26T00:32:35.159Z,8.10
2018-05-26T00:35:01.924Z,8.60
2018-05-26T00:37:28.557Z,8.47
2018-05-26T00:39:55.176Z,9.13
2018-05-26T00:42:21.833Z,7.87
2018-05-26T00:44:48.486Z,8.30
2018-05-26T00:47:15.142Z,7.80
2018-05-26T00:49:41.743Z,9.53
2018-05-26T00:52:08.385Z,10.53
2018-05-26T00:54:35.009Z,8.83
2018-05-26T00:57:01.674Z,8.93
2018-05-26T00:59:28.296Z,9.87
2018-05-26T01:01:54.956Z,9.70
2018-05-26T01:04:21.609Z,9.57
2018-05-26T01:06:48.246Z,9.20
2018-05-26T01:09:14.937Z,8.60
2018-05-26T01:11:41.594Z,9.80
2018-05-26T01:14:08.249Z,9.13
2018-05-26T01:16:34.906Z,9.70
2018-05-26T01:19:01.550Z,8.47
2018-05-26T01:21:28.183Z,8.73
2018-05-26T01:23:54.852Z,9.13
2018-05-26T01:26:21.483Z,8.87
2018-05-26T01:28:48.144Z,8.83
2018-05-26T01:31:14.836Z,7.80
2018-05-26T01:33:41.488Z,8.60
2018-05-26T01:36:08.302Z,8.77
2018-05-26T01:38:34.933Z,8.60
2018-05-26T01:41:01.662Z,11.73
2018-05-26T01:43:28.328Z,8.30
2018-05-26T01:45:54.984Z,8.10
2018-05-26T01:48:21.670Z,10.43
2018-05-26T01:50:48.376Z,9.77
2018-05-26T01:53:14.998Z,8.90
2018-05-26T01:55:41.679Z,8.20
2018-05-26T01:58:08.367Z,9.10
2018-05-26T02:00:34.974Z,8.27
2018-05-26T02:03:01.636Z,10.40
2018-05-26T02:05:28.270Z,8.53
2018-05-26T02:07:54.904Z,8.83
2018-05-26T02:10:21.576Z,9.10
2018-05-26T02:12:48.210Z,8.00
2018-05-26T02:15:14.855Z,7.97
2018-05-26T02:17:41.991Z,7.57
2018-05-26T02:20:08.638Z,7.90
2018-05-26T02:22:35.262Z,8.33
2018-05-26T02:25:01.899Z,7.30
2018-05-26T02:27:28.536Z,8.23
2018-05-26T02:29:55.170Z,8.67
2018-05-26T02:32:21.815Z,6.73
2018-05-26T02:34:48.459Z,8.20
2018-05-26T02:37:15.095Z,7.97
2018-05-26T02:39:41.755Z,7.67
2018-05-26T02:42:08.430Z,7.87
2018-05-26T02:44:35.096Z,7.90
2018-05-26T02:47:01.741Z,7.80
2018-05-26T02:49:28.354Z,7.60
2018-05-26T02:51:54.985Z,8.50
2018-05-26T02:54:21.635Z,7.93
2018-05-26T02:56:48.283Z,8.30
2018-05-26T02:59:14.928Z,8.50
2018-05-26T03:01:41.559Z,7.60
2018-05-26T03:04:07.785Z,8.03
2018-05-26T03:06:40.033Z,9.00
2018-05-26T03:09:12.327Z,7.97
2018-05-26T03:11:44.571Z,10.13
2018-05-26T03:14:16.998Z,10.50
2018-05-26T03:16:51.232Z,8.57
2018-05-26T03:19:17.951Z,9.03
2018-05-26T03:21:44.581Z,8.80
2018-05-26T03:24:11.205Z,12.33
2018-05-26T03:26:37.858Z,7.60
2018-05-26T03:29:04.524Z,8.00
2018-05-26T03:31:31.171Z,7.20
2018-05-26T03:33:58.340Z,8.40
2018-05-26T03:36:25.036Z,8.30
2018-05-26T03:38:51.635Z,8.27
2018-05-26T03:41:18.297Z,7.63
2018-05-26T03:43:44.944Z,7.47
2018-05-26T03:46:11.570Z,8.57
2018-05-26T03:48:38.676Z,7.70
2018-05-26T03:51:05.321Z,12.33
2018-05-26T03:53:31.984Z,7.40
2018-05-26T03:56:04.514Z,7.30
2018-05-26T03:58:37.001Z,6.97
2018-05-26T04:01:03.645Z,6.87
2018-05-26T04:03:30.279Z,7.53
2018-05-26T04:05:56.969Z,7.63
2018-05-26T04:08:23.573Z,7.53
2018-05-26T04:10:50.191Z,7.93
2018-05-26T04:13:16.840Z,7.63
2018-05-26T04:15:43.468Z,6.90
2018-05-26T04:18:10.102Z,7.33
2018-05-26T04:20:36.751Z,6.37
2018-05-26T04:23:03.382Z,7.67
2018-05-26T04:25:30.006Z,7.37
2018-05-26T04:27:56.634Z,6.60
2018-05-26T04:30:23.291Z,6.80
2018-05-26T04:32:49.919Z,8.07
2018-05-26T04:35:16.570Z,7.30
2018-05-26T04:37:43.233Z,7.77
2018-05-26T04:40:09.836Z,7.40
2018-05-26T04:42:36.534Z,9.43
2018-05-26T04:45:03.154Z,7.60
2018-05-26T04:47:29.795Z,7.47
2018-05-26T04:49:56.414Z,7.57
2018-05-26T04:52:23.111Z,6.90
2018-05-26T04:54:49.738Z,7.83
2018-05-26T04:57:16.367Z,7.03
2018-05-26T04:59:43.018Z,7.23
2018-05-26T05:02:09.637Z,8.77
2018-05-26T05:04:36.289Z,7.23
2018-05-26T05:07:02.963Z,7.00
2018-05-26T05:09:29.651Z,7.50
2018-05-26T05:11:56.293Z,8.07
2018-05-26T05:14:22.946Z,6.70
2018-05-26T05:16:49.589Z,8.30
2018-05-26T05:19:16.271Z,7.30
2018-05-26T05:21:42.938Z,7.47
2018-05-26T05:24:09.577Z,7.20
2018-05-26T05:26:36.224Z,8.03
2018-05-26T05:29:02.856Z,7.20
2018-05-26T05:31:29.505Z,7.67
2018-05-26T05:33:56.157Z,7.93
2018-05-26T05:36:22.838Z,6.87
2018-05-26T05:38:49.480Z,6.70
2018-05-26T05:41:16.109Z,7.90
2018-05-26T05:43:42.751Z,7.20
2018-05-26T05:46:09.385Z,6.10
2018-05-26T05:48:36.049Z,6.90
2018-05-26T05:51:02.693Z,6.27
2018-05-26T05:53:32.129Z,5.90
2018-05-26T05:55:58.766Z,7.53
2018-05-26T05:58:25.404Z,6.10
2018-05-26T06:00:52.041Z,6.20
2018-05-26T06:03:18.667Z,7.27
2018-05-26T06:05:45.460Z,7.77
2018-05-26T06:08:12.081Z,7.60
2018-05-26T06:10:38.716Z,8.60
2018-05-26T06:13:05.390Z,6.33
2018-05-26T06:15:32.081Z,6.70
2018-05-26T06:17:58.669Z,6.13
2018-05-26T06:20:26.141Z,7.20
2018-05-26T06:22:52.769Z,6.70
2018-05-26T06:25:19.434Z,7.33
2018-05-26T06:27:46.101Z,6.63
2018-05-26T06:30:12.730Z,5.80
2018-05-26T06:32:39.371Z,7.03
2018-05-26T06:35:06.045Z,6.67
2018-05-26T06:37:32.729Z,6.53
2018-05-26T06:39:59.392Z,6.60
2018-05-26T06:42:26.029Z,6.20
2018-05-26T06:44:52.669Z,6.50
2018-05-26T06:47:19.388Z,6.77
2018-05-26T06:49:46.025Z,6.93
2018-05-26T06:52:12.702Z,6.20
2018-05-26T06:54:39.336Z,6.33
2018-05-26T06:57:05.977Z,8.73
2018-05-26T06:59:32.611Z,6.83
2018-05-26T07:01:59.277Z,6.00
2018-05-26T07:04:25.959Z,5.33
2018-05-26T07:06:52.583Z,6.70
2018-05-26T07:09:19.204Z,6.57
2018-05-26T07:11:45.861Z,6.30
2018-05-26T07:14:12.468Z,6.73
2018-05-26T07:16:39.112Z,6.53
2018-05-26T07:19:05.774Z,6.47
2018-05-26T07:21:32.394Z,6.80
2018-05-26T07:23:59.043Z,6.37
2018-05-26T07:26:25.660Z,6.20
2018-05-26T07:28:52.320Z,7.03
2018-05-26T07:31:18.970Z,6.43
2018-05-26T07:33:45.635Z,6.10
2018-05-26T07:36:12.275Z,7.43
2018-05-26T07:38:38.928Z,6.33
2018-05-26T07:41:05.567Z,6.60
2018-05-26T07:43:32.222Z,6.30
2018-05-26T07:45:58.857Z,6.93
2018-05-26T07:48:25.481Z,6.60
2018-05-26T07:50:52.123Z,5.27
2018-05-26T07:53:18.750Z,6.63
2018-05-26T07:55:45.421Z,9.63
2018-05-26T07:58:12.071Z,7.93
2018-05-26T08:00:38.724Z,6.53
2018-05-26T08:03:05.400Z,6.00
2018-05-26T08:05:32.053Z,6.03
2018-05-26T08:07:58.698Z,5.53
2018-05-26T08:10:25.356Z,5.37
2018-05-26T08:12:52.026Z,6.07
2018-05-26T08:15:18.655Z,6.07
2018-05-26T08:17:45.295Z,4.83
2018-05-26T08:20:11.931Z,5.90
2018-05-26T08:22:38.553Z,5.60
2018-05-26T08:25:05.210Z,5.77
2018-05-26T08:27:31.832Z,5.47
2018-05-26T08:29:58.488Z,5.40
2018-05-26T08:32:25.121Z,5.20
2018-05-26T08:34:53.110Z,6.30
2018-05-26T08:37:19.726Z,5.67
2018-05-26T08:39:46.365Z,5.53
2018-05-26T08:42:12.991Z,4.80
2018-05-26T08:44:39.659Z,5.50
2018-05-26T08:47:06.347Z,5.30
2018-05-26T08:49:32.995Z,6.13
2018-05-26T08:51:59.636Z,5.23
2018-05-26T08:54:26.453Z,4.73
2018-05-26T08:56:53.092Z,5.17
2018-05-26T08:59:19.720Z,5.00
2018-05-26T09:01:46.397Z,5.20
2018-05-26T09:04:13.013Z,5.73
2018-05-26T09:06:39.678Z,8.43
2018-05-26T09:09:06.331Z,4.93
2018-05-26T09:11:32.950Z,5.93
2018-05-26T09:14:00.080Z,5.27
2018-05-26T09:16:26.720Z,5.43
2018-05-26T09:18:53.394Z,6.13
2018-05-26T09:21:20.055Z,5.33
2018-05-26T09:23:46.743Z,5.40
2018-05-26T09:26:13.375Z,5.23
2018-05-26T09:28:40.004Z,5.90
2018-05-26T09:31:06.640Z,5.53
2018-05-26T09:33:33.292Z,5.37
2018-05-26T09:35:59.938Z,5.20
2018-05-26T09:38:26.554Z,4.47
2018-05-26T09:40:53.239Z,4.97
2018-05-26T09:43:19.901Z,5.13
2018-05-26T09:45:47.434Z,5.53
2018-05-26T09:48:14.159Z,4.73
2018-05-26T09:50:40.954Z,4.70
2018-05-26T09:53:08.559Z,4.70
2018-05-26T09:55:35.192Z,4.80
2018-05-26T09:58:01.857Z,4.63
2018-05-26T10:00:28.552Z,5.20
2018-05-26T10:02:55.228Z,4.37
2018-05-26T10:05:21.878Z,3.60
2018-05-26T10:07:48.515Z,3.63
2018-05-26T10:10:15.175Z,3.33
2018-05-26T10:12:42.059Z,3.47
2018-05-26T10:15:08.881Z,2.93
2018-05-26T10:17:35.602Z,3.57
2018-05-26T10:20:02.276Z,3.90
2018-05-26T10:22:28.963Z,4.30
2018-05-26T10:24:55.604Z,3.10
2018-05-26T10:27:22.347Z,3.73
2018-05-26T10:29:49.040Z,3.73
2018-05-26T10:32:15.767Z,3.87
2018-05-26T10:34:42.407Z,3.30
2018-05-26T10:37:09.080Z,3.83
2018-05-26T10:39:35.721Z,3.73
2018-05-26T10:42:02.402Z,4.27
2018-05-26T10:44:29.040Z,3.70
2018-05-26T10:46:55.695Z,3.70
2018-05-26T10:49:22.353Z,4.00
2018-05-26T10:51:49.021Z,2.93
2018-05-26T10:54:15.657Z,3.80
2018-05-26T10:56:42.309Z,3.73
2018-05-26T10:59:08.971Z,4.13
2018-05-26T11:01:35.608Z,3.47
2018-05-26T11:04:02.268Z,3.27
2018-05-26T11:06:34.754Z,3.57
2018-05-26T11:09:01.432Z,4.10
2018-05-26T11:11:28.096Z,3.70
2018-05-26T11:13:54.735Z,4.83
2018-05-26T11:16:21.555Z,4.80
2018-05-26T11:18:48.113Z,3.83
2018-05-26T11:21:14.785Z,3.03
2018-05-26T11:23:41.776Z,6.07
2018-05-26T11:26:08.387Z,3.70
2018-05-26T11:28:35.025Z,3.50
2018-05-26T11:31:01.787Z,3.73
2018-05-26T11:33:28.373Z,3.63
2018-05-26T11:35:55.017Z,4.10
2018-05-26T11:38:21.644Z,4.27
2018-05-26T11:40:48.318Z,3.53
2018-05-26T11:43:14.978Z,3.80
2018-05-26T11:45:41.592Z,4.30
2018-05-26T11:48:08.306Z,4.00
2018-05-26T11:50:35.033Z,4.33
2018-05-26T11:53:01.681Z,3.77
2018-05-26T11:55:28.319Z,4.47
2018-05-26T11:57:54.998Z,4.07
2018-05-26T12:00:21.706Z,4.40
2018-05-26T12:02:48.338Z,4.03
2018-05-26T12:05:15.016Z,3.97
2018-05-26T12:07:41.683Z,4.57
2018-05-26T12:10:08.330Z,4.10
2018-05-26T12:12:34.968Z,3.70
2018-05-26T12:15:01.611Z,4.17
2018-05-26T12:17:28.270Z,3.80
2018-05-26T12:19:54.921Z,3.80
2018-05-26T12:22:21.546Z,3.87
2018-05-26T12:24:48.266Z,3.70
2018-05-26T12:27:14.944Z,3.70
2018-05-26T12:29:41.652Z,3.60
2018-05-26T12:32:08.332Z,4.33
2018-05-26T12:34:34.978Z,3.20
2018-05-26T12:37:01.602Z,3.67
2018-05-26T12:39:28.244Z,3.60
2018-05-26T12:41:54.896Z,3.20
2018-05-26T12:44:21.510Z,3.40
2018-05-26T12:46:49.155Z,3.30
2018-05-26T12:49:15.782Z,3.73
2018-05-26T12:51:42.431Z,3.30
2018-05-26T12:54:09.091Z,2.97
2018-05-26T12:56:35.712Z,3.47
2018-05-26T12:59:02.336Z,2.97
2018-05-26T13:01:28.990Z,3.30
2018-05-26T13:03:55.646Z,3.80
2018-05-26T13:06:22.263Z,3.47
2018-05-26T13:08:49.437Z,3.00
2018-05-26T13:11:16.084Z,3.00
2018-05-26T13:13:42.738Z,3.13
2018-05-26T13:16:09.411Z,3.83
2018-05-26T13:18:36.061Z,3.73
2018-05-26T13:21:02.705Z,3.37
2018-05-26T13:23:29.344Z,3.43
2018-05-26T13:25:55.977Z,4.13
2018-05-26T13:28:22.667Z,3.20
2018-05-26T13:30:49.385Z,4.20
2018-05-26T13:33:16.062Z,3.80
2018-05-26T13:35:42.723Z,3.47
2018-05-26T13:38:09.361Z,3.50
2018-05-26T13:40:36.030Z,4.23
2018-05-26T13:43:02.683Z,3.90
2018-05-26T13:45:29.303Z,3.83
2018-05-26T13:47:55.963Z,3.77
2018-05-26T13:50:22.659Z,4.07
2018-05-26T13:52:49.351Z,3.50
2018-05-26T13:55:15.929Z,3.77
2018-05-26T13:57:43.418Z,3.50
2018-05-26T14:00:10.066Z,3.97
2018-05-26T14:02:36.712Z,3.70
2018-05-26T14:05:03.354Z,4.50
2018-05-26T14:07:30.050Z,3.60
2018-05-26T14:09:56.725Z,3.60
2018-05-26T14:12:23.391Z,4.17
2018-05-26T14:14:50.016Z,4.63
2018-05-26T14:17:16.751Z,3.80
2018-05-26T14:19:43.323Z,3.80
2018-05-26T14:22:10.002Z,4.00
2018-05-26T14:24:36.650Z,3.83
2018-05-26T14:27:03.284Z,3.73
2018-05-26T14:29:30.232Z,4.33
2018-05-26T14:31:56.884Z,3.83
2018-05-26T14:34:23.564Z,4.20
2018-05-26T14:36:50.215Z,3.90
2018-05-26T14:39:16.826Z,4.40
2018-05-26T14:41:43.467Z,4.23
2018-05-26T14:44:10.109Z,6.40
2018-05-26T14:46:36.741Z,4.40
2018-05-26T14:49:03.393Z,4.77
2018-05-26T14:51:30.025Z,4.77
2018-05-26T14:53:56.689Z,4.50
2018-05-26T14:56:23.326Z,4.87
2018-05-26T14:58:49.987Z,3.97
2018-05-26T15:01:16.624Z,4.20
2018-05-26T15:03:43.275Z,4.13
2018-05-26T15:06:09.925Z,3.70
2018-05-26T15:08:36.572Z,3.80
2018-05-26T15:11:03.205Z,6.20
2018-05-26T15:13:29.848Z,4.70
2018-05-26T15:15:56.482Z,3.70
2018-05-26T15:18:23.096Z,4.67
2018-05-26T15:20:49.762Z,3.70
2018-05-26T15:23:16.431Z,4.27
2018-05-26T15:25:43.095Z,4.20
2018-05-26T15:28:09.723Z,3.80
2018-05-26T15:30:36.412Z,3.80
2018-05-26T15:33:03.083Z,4.00
2018-05-26T15:35:29.719Z,3.73
2018-05-26T15:37:56.390Z,4.30
2018-05-26T15:40:23.000Z,5.13
2018-05-26T15:42:49.638Z,4.90
2018-05-26T15:45:16.275Z,4.53
2018-05-26T15:47:42.921Z,4.83
2018-05-26T15:50:09.569Z,4.07
2018-05-26T15:52:36.242Z,4.40
2018-05-26T15:55:02.901Z,4.00
2018-05-26T15:57:29.641Z,4.20
2018-05-26T15:59:56.342Z,4.37
2018-05-26T16:02:22.979Z,4.20
2018-05-26T16:04:49.613Z,3.80
2018-05-26T16:07:16.262Z,4.13
2018-05-26T16:09:42.917Z,4.60
2018-05-26T16:12:09.582Z,3.93
2018-05-26T16:14:36.255Z,3.30
2018-05-26T16:17:02.913Z,3.60
2018-05-26T16:19:29.605Z,4.20
2018-05-26T16:21:56.263Z,4.27
2018-05-26T16:24:22.927Z,4.07
2018-05-26T16:26:49.610Z,3.57
2018-05-26T16:29:16.251Z,3.53
2018-05-26T16:31:42.900Z,4.23
2018-05-26T16:34:09.541Z,3.90
2018-05-26T16:36:36.264Z,3.87
2018-05-26T16:39:03.722Z,3.77
2018-05-26T16:41:30.362Z,3.83
2018-05-26T16:43:57.026Z,4.23
2018-05-26T16:46:23.716Z,3.77
2018-05-26T16:48:50.366Z,3.67
2018-05-26T16:51:17.061Z,3.73
2018-05-26T16:53:43.711Z,3.90
2018-05-26T16:56:10.383Z,3.90
2018-05-26T16:58:37.088Z,3.80
2018-05-26T17:01:03.855Z,3.67
2018-05-26T17:03:30.756Z,3.60
2018-05-26T17:05:57.462Z,4.80
2018-05-26T17:08:24.118Z,3.30
2018-05-26T17:10:50.780Z,3.40
2018-05-26T17:13:17.435Z,2.63
2018-05-26T17:15:44.062Z,3.20
2018-05-26T17:18:10.701Z,3.50
2018-05-26T17:20:37.360Z,3.27
2018-05-26T17:23:04.035Z,2.90
2018-05-26T17:25:30.645Z,3.30
2018-05-26T17:27:57.274Z,4.00
2018-05-26T17:30:23.944Z,3.60
2018-05-26T17:32:50.594Z,3.20
2018-05-26T17:35:17.224Z,3.23
2018-05-26T17:37:43.910Z,3.40
2018-05-26T17:40:10.672Z,3.60
2018-05-26T17:42:37.444Z,3.43
2018-05-26T17:45:04.147Z,3.00
2018-05-26T17:47:30.827Z,3.30
2018-05-26T17:49:57.464Z,4.00
2018-05-26T17:52:24.220Z,3.20
2018-05-26T17:54:50.851Z,3.37
2018-05-26T17:57:17.523Z,3.13
2018-05-26T17:59:44.194Z,3.10
2018-05-26T18:02:10.808Z,3.30
2018-05-26T18:04:37.473Z,4.60
2018-05-26T18:07:04.137Z,3.60
2018-05-26T18:09:30.794Z,3.50
2018-05-26T18:11:57.441Z,3.20
2018-05-26T18:14:24.115Z,3.53
2018-05-26T18:16:50.768Z,5.60
2018-05-26T18:19:17.395Z,3.37
2018-05-26T18:21:44.105Z,3.10
2018-05-26T18:24:10.887Z,2.70
2018-05-26T18:26:37.531Z,3.73
2018-05-26T18:29:04.221Z,4.80
2018-05-26T18:31:30.904Z,3.90
2018-05-26T18:33:57.619Z,4.40
2018-05-26T18:36:24.253Z,4.73
2018-05-26T18:38:50.931Z,3.60
2018-05-26T18:41:17.578Z,4.00
2018-05-26T18:43:44.228Z,3.60
2018-05-26T18:46:10.863Z,2.70
2018-05-26T18:48:38.025Z,3.60
2018-05-26T18:51:04.713Z,3.17
2018-05-26T18:53:31.343Z,3.20
2018-05-26T18:55:57.994Z,2.90
2018-05-26T18:58:24.646Z,3.70
2018-05-26T19:00:51.299Z,3.90
2018-05-26T19:03:17.974Z,3.70
2018-05-26T19:05:44.738Z,3.80
2018-05-26T19:08:11.370Z,4.40
2018-05-26T19:10:38.037Z,3.67
2018-05-26T19:13:04.697Z,3.70
2018-05-26T19:15:31.420Z,3.73
2018-05-26T19:17:58.061Z,3.73
2018-05-26T19:20:24.714Z,3.50
2018-05-26T19:22:51.360Z,4.10
2018-05-26T19:25:18.018Z,4.73
2018-05-26T19:27:44.628Z,5.40
2018-05-26T19:30:11.249Z,4.83
2018-05-26T19:32:37.918Z,4.47
2018-05-26T19:35:05.172Z,4.50
2018-05-26T19:37:31.814Z,4.20
2018-05-26T19:39:58.476Z,4.90
2018-05-26T19:42:25.128Z,5.60
2018-05-26T19:44:51.770Z,4.70
2018-05-26T19:47:19.077Z,4.83
2018-05-26T19:49:45.711Z,5.67
2018-05-26T19:52:12.359Z,5.60
2018-05-26T19:54:38.995Z,4.63
2018-05-26T19:57:05.674Z,5.47
2018-05-26T19:59:32.318Z,5.90
2018-05-26T20:01:58.996Z,7.10
2018-05-26T20:04:25.665Z,4.90
2018-05-26T20:06:52.329Z,4.33
2018-05-26T20:09:18.946Z,4.57
2018-05-26T20:11:45.590Z,5.20
2018-05-26T20:14:12.224Z,4.70
2018-05-26T20:16:38.880Z,4.90
2018-05-26T20:19:05.518Z,5.43
2018-05-26T20:21:32.189Z,6.10
2018-05-26T20:23:58.859Z,6.13
2018-05-26T20:26:25.512Z,6.97
2018-05-26T20:28:52.148Z,5.63
2018-05-26T20:31:18.891Z,6.90
2018-05-26T20:33:45.519Z,6.33
2018-05-26T20:36:12.299Z,6.70
2018-05-26T20:38:39.739Z,6.63
2018-05-26T20:41:06.399Z,5.83
2018-05-26T20:43:33.030Z,6.00
2018-05-26T20:45:59.807Z,6.77
2018-05-26T20:48:26.460Z,5.90
2018-05-26T20:50:53.107Z,6.97
2018-05-26T20:53:19.767Z,6.47
2018-05-26T20:55:46.382Z,5.67
2018-05-26T20:58:13.012Z,5.87
2018-05-26T21:00:39.766Z,5.60
2018-05-26T21:03:06.402Z,5.60
2018-05-26T21:05:33.060Z,6.30
2018-05-26T21:07:59.702Z,6.20
2018-05-26T21:10:26.435Z,6.13
2018-05-26T21:12:53.099Z,6.57
2018-05-26T21:15:19.760Z,7.83
2018-05-26T21:17:46.414Z,7.50
2018-05-26T21:20:13.057Z,7.00
2018-05-26T21:22:39.717Z,7.07
2018-05-26T21:25:06.399Z,7.30
2018-05-26T21:27:33.058Z,7.60
2018-05-26T21:29:59.728Z,7.20
2018-05-26T21:32:26.435Z,8.10
2018-05-26T21:34:53.067Z,8.10
2018-05-26T21:37:19.703Z,7.23
2018-05-26T21:39:46.369Z,7.10
2018-05-26T21:42:13.038Z,6.90
2018-05-26T21:44:39.660Z,6.93
2018-05-26T21:47:06.325Z,7.10
2018-05-26T21:49:32.979Z,7.23
2018-05-26T21:51:59.616Z,6.90
2018-05-26T21:54:26.265Z,6.23
2018-05-26T21:56:52.923Z,7.37
2018-05-26T21:59:19.593Z,6.17
2018-05-26T22:01:46.214Z,6.90
2018-05-26T22:04:12.870Z,5.97
2018-05-26T22:06:39.526Z,6.77
2018-05-26T22:09:06.210Z,7.80
2018-05-26T22:11:32.860Z,6.43
2018-05-26T22:13:59.559Z,6.47
2018-05-26T22:16:26.178Z,6.80
2018-05-26T22:18:52.847Z,8.00
2018-05-26T22:21:19.470Z,8.00
2018-05-26T22:23:46.118Z,7.17
2018-05-26T22:26:12.779Z,8.40
2018-05-26T22:28:39.438Z,8.53
2018-05-26T22:31:06.122Z,8.63
2018-05-26T22:33:33.606Z,8.40
2018-05-26T22:36:00.257Z,8.30
2018-05-26T22:38:26.913Z,7.70
2018-05-26T22:40:53.586Z,7.87
2018-05-26T22:43:20.243Z,7.40
2018-05-26T22:45:46.891Z,8.27
2018-05-26T22:48:13.593Z,7.47
2018-05-26T22:50:40.242Z,8.00
2018-05-26T22:53:06.908Z,7.53
2018-05-26T22:55:33.552Z,8.20
2018-05-26T22:58:00.190Z,7.90
2018-05-26T23:00:26.834Z,6.77
2018-05-26T23:02:53.494Z,8.10
2018-05-26T23:05:20.160Z,7.30
2018-05-26T23:07:46.799Z,7.23
2018-05-26T23:10:13.461Z,7.50
2018-05-26T23:12:40.117Z,6.30
2018-05-26T23:15:06.759Z,6.13
2018-05-26T23:17:33.408Z,6.30
2018-05-26T23:20:00.064Z,8.40
2018-05-26T23:22:26.728Z,6.30
2018-05-26T23:24:53.379Z,5.83
2018-05-26T23:27:20.034Z,6.83
2018-05-26T23:29:46.969Z,8.43
2018-05-26T23:32:13.615Z,8.20
2018-05-26T23:34:41.035Z,6.73
2018-05-26T23:37:07.830Z,6.30
2018-05-26T23:39:34.472Z,6.23
2018-05-26T23:42:01.107Z,8.20
2018-05-26T23:44:27.759Z,6.93
2018-05-26T23:46:54.402Z,6.97
2018-05-26T23:49:21.061Z,7.00
2018-05-26T23:51:47.696Z,7.33
2018-05-26T23:54:14.361Z,6.63
2018-05-26T23:56:41.025Z,6.73
2018-05-26T23:59:07.666Z,6.40
